I Should Be X-Countrying

Today would be a perfect day for my necessary long x-country. Alas, work beckons me.

METAR CYKZ 211500Z 22006KT 12SM SCT220 BKN250 01/M05 A3051 RMK CI2CI2

CONTRAILS SLP340=

METAR CYQA 211400Z AUTO 16005KT 9SM CLR M03/M05 A3044 RMK SLP325=

METAR CYPQ 211500Z AUTO 21006KT 9SM CLR 01/M06 A3050 RMK SLP340=

Visibility is lower but still good enough. Damn.